sensor_id;sensor_type;location;lat;lon;timestamp;temperature;humidity
19044;DHT22;9654;52.302;8.120;2023-11-19T00:02:18;9.30;99.90
19044;DHT22;9654;52.302;8.120;2023-11-19T00:04:45;9.40;99.90
19044;DHT22;9654;52.302;8.120;2023-11-19T00:07:11;9.40;99.90
19044;DHT22;9654;52.302;8.120;2023-11-19T00:09:39;9.40;99.90
19044;DHT22;9654;52.302;8.120;2023-11-19T00:12:07;9.50;99.90
19044;DHT22;9654;52.302;8.120;2023-11-19T00:14:34;9.50;99.90
19044;DHT22;9654;52.302;8.120;2023-11-19T00:17:01;9.50;99.90
19044;DHT22;9654;52.302;8.120;2023-11-19T00:19:30;9.50;99.90
19044;DHT22;9654;52.302;8.120;2023-11-19T00:21:57;9.50;99.90
19044;DHT22;9654;52.302;8.120;2023-11-19T00:24:28;9.50;99.90
19044;DHT22;9654;52.302;8.120;2023-11-19T00:26:55;9.60;99.90
19044;DHT22;9654;52.302;8.120;2023-11-19T00:29:22;9.60;99.90
19044;DHT22;9654;52.302;8.120;2023-11-19T00:31:48;9.60;99.90
19044;DHT22;9654;52.302;8.120;2023-11-19T00:34:15;9.60;99.90
19044;DHT22;9654;52.302;8.120;2023-11-19T00:36:47;9.60;99.90
19044;DHT22;9654;52.302;8.120;2023-11-19T00:39:14;9.60;99.90
19044;DHT22;9654;52.302;8.120;2023-11-19T00:41:41;9.60;99.90
19044;DHT22;9654;52.302;8.120;2023-11-19T00:44:08;9.70;99.90
19044;DHT22;9654;52.302;8.120;2023-11-19T00:46:34;9.70;99.90
19044;DHT22;9654;52.302;8.120;2023-11-19T00:49:02;9.70;99.90
19044;DHT22;9654;52.302;8.120;2023-11-19T00:51:29;9.70;99.90
19044;DHT22;9654;52.302;8.120;2023-11-19T00:53:58;9.80;99.90
19044;DHT22;9654;52.302;8.120;2023-11-19T00:56:26;9.90;99.90
19044;DHT22;9654;52.302;8.120;2023-11-19T00:58:53;9.90;99.90
19044;DHT22;9654;52.302;8.120;2023-11-19T01:01:21;9.90;99.90
19044;DHT22;9654;52.302;8.120;2023-11-19T01:03:48;9.90;99.90
19044;DHT22;9654;52.302;8.120;2023-11-19T01:06:15;9.90;99.90
19044;DHT22;9654;52.302;8.120;2023-11-19T01:08:42;10.00;99.90
19044;DHT22;9654;52.302;8.120;2023-11-19T01:11:20;10.00;99.90
19044;DHT22;9654;52.302;8.120;2023-11-19T01:13:47;10.00;99.90
19044;DHT22;9654;52.302;8.120;2023-11-19T01:16:14;10.00;99.90
19044;DHT22;9654;52.302;8.120;2023-11-19T01:18:41;10.00;99.90
19044;DHT22;9654;52.302;8.120;2023-11-19T01:21:08;10.10;99.90
19044;DHT22;9654;52.302;8.120;2023-11-19T01:23:35;10.10;99.90
19044;DHT22;9654;52.302;8.120;2023-11-19T01:26:02;10.10;99.90
19044;DHT22;9654;52.302;8.120;2023-11-19T01:28:32;10.10;99.90
19044;DHT22;9654;52.302;8.120;2023-11-19T01:31:00;10.10;99.90
19044;DHT22;9654;52.302;8.120;2023-11-19T01:33:26;10.20;99.90
19044;DHT22;9654;52.302;8.120;2023-11-19T01:35:53;10.10;99.90
19044;DHT22;9654;52.302;8.120;2023-11-19T01:38:21;10.20;99.90
19044;DHT22;9654;52.302;8.120;2023-11-19T01:40:48;10.30;99.90
19044;DHT22;9654;52.302;8.120;2023-11-19T01:43:34;10.30;99.90
19044;DHT22;9654;52.302;8.120;2023-11-19T01:46:01;10.30;99.90
19044;DHT22;9654;52.302;8.120;2023-11-19T01:48:28;10.40;99.90
19044;DHT22;9654;52.302;8.120;2023-11-19T01:50:56;10.40;99.90
19044;DHT22;9654;52.302;8.120;2023-11-19T01:53:24;10.40;99.90
19044;DHT22;9654;52.302;8.120;2023-11-19T01:55:51;10.50;99.90
19044;DHT22;9654;52.302;8.120;2023-11-19T01:58:19;10.50;99.90
19044;DHT22;9654;52.302;8.120;2023-11-19T02:00:47;10.50;99.90
19044;DHT22;9654;52.302;8.120;2023-11-19T02:03:14;10.60;99.90
19044;DHT22;9654;52.302;8.120;2023-11-19T02:05:41;10.60;99.90
19044;DHT22;9654;52.302;8.120;2023-11-19T02:08:08;10.60;99.90
19044;DHT22;9654;52.302;8.120;2023-11-19T02:10:35;10.60;99.90
19044;DHT22;9654;52.302;8.120;2023-11-19T02:13:02;10.70;99.90
19044;DHT22;9654;52.302;8.120;2023-11-19T02:15:31;10.70;99.90
19044;DHT22;9654;52.302;8.120;2023-11-19T02:18:21;10.70;99.90
19044;DHT22;9654;52.302;8.120;2023-11-19T02:20:48;10.70;99.90
19044;DHT22;9654;52.302;8.120;2023-11-19T02:23:16;10.70;99.90
19044;DHT22;9654;52.302;8.120;2023-11-19T02:25:43;10.80;99.90
19044;DHT22;9654;52.302;8.120;2023-11-19T02:28:13;10.80;99.90
19044;DHT22;9654;52.302;8.120;2023-11-19T02:30:41;10.80;99.90
19044;DHT22;9654;52.302;8.120;2023-11-19T02:33:08;10.80;99.90
19044;DHT22;9654;52.302;8.120;2023-11-19T02:35:35;10.90;99.90
19044;DHT22;9654;52.302;8.120;2023-11-19T02:38:02;10.90;99.90
19044;DHT22;9654;52.302;8.120;2023-11-19T02:40:29;11.00;99.90
19044;DHT22;9654;52.302;8.120;2023-11-19T02:42:56;11.00;99.90
19044;DHT22;9654;52.302;8.120;2023-11-19T02:45:25;11.00;99.90
19044;DHT22;9654;52.302;8.120;2023-11-19T02:47:52;11.10;99.90
19044;DHT22;9654;52.302;8.120;2023-11-19T02:50:21;11.10;99.90
19044;DHT22;9654;52.302;8.120;2023-11-19T02:52:52;11.10;99.90
19044;DHT22;9654;52.302;8.120;2023-11-19T02:55:21;11.10;99.90
19044;DHT22;9654;52.302;8.120;2023-11-19T02:57:49;11.20;99.90
19044;DHT22;9654;52.302;8.120;2023-11-19T03:00:17;11.20;99.90
19044;DHT22;9654;52.302;8.120;2023-11-19T03:02:51;11.20;99.90
19044;DHT22;9654;52.302;8.120;2023-11-19T03:05:25;11.30;99.90
19044;DHT22;9654;52.302;8.120;2023-11-19T03:07:52;11.30;99.90
19044;DHT22;9654;52.302;8.120;2023-11-19T03:10:19;11.30;99.90
19044;DHT22;9654;52.302;8.120;2023-11-19T03:12:45;11.30;99.90
19044;DHT22;9654;52.302;8.120;2023-11-19T03:15:12;11.30;99.90
19044;DHT22;9654;52.302;8.120;2023-11-19T03:17:40;11.30;99.90
19044;DHT22;9654;52.302;8.120;2023-11-19T03:20:10;11.40;99.90
19044;DHT22;9654;52.302;8.120;2023-11-19T03:22:40;11.40;99.90
19044;DHT22;9654;52.302;8.120;2023-11-19T03:25:08;11.40;99.90
19044;DHT22;9654;52.302;8.120;2023-11-19T03:27:35;11.40;99.90
19044;DHT22;9654;52.302;8.120;2023-11-19T03:30:02;11.40;99.90
19044;DHT22;9654;52.302;8.120;2023-11-19T03:32:30;11.40;99.90
19044;DHT22;9654;52.302;8.120;2023-11-19T03:34:57;11.40;99.90
19044;DHT22;9654;52.302;8.120;2023-11-19T03:37:26;11.40;99.90
19044;DHT22;9654;52.302;8.120;2023-11-19T03:39:53;11.40;99.90
19044;DHT22;9654;52.302;8.120;2023-11-19T03:42:20;11.40;99.90
19044;DHT22;9654;52.302;8.120;2023-11-19T03:44:47;11.40;99.90
19044;DHT22;9654;52.302;8.120;2023-11-19T03:47:14;11.40;99.90
19044;DHT22;9654;52.302;8.120;2023-11-19T03:49:41;11.40;99.90
19044;DHT22;9654;52.302;8.120;2023-11-19T03:52:09;11.40;99.90
19044;DHT22;9654;52.302;8.120;2023-11-19T03:54:37;11.50;99.90
19044;DHT22;9654;52.302;8.120;2023-11-19T03:57:04;11.50;99.90
19044;DHT22;9654;52.302;8.120;2023-11-19T03:59:31;11.50;99.90
19044;DHT22;9654;52.302;8.120;2023-11-19T04:01:58;11.50;99.90
19044;DHT22;9654;52.302;8.120;2023-11-19T04:04:26;11.50;99.90
19044;DHT22;9654;52.302;8.120;2023-11-19T04:06:53;11.50;99.90
19044;DHT22;9654;52.302;8.120;2023-11-19T04:09:20;11.50;99.90
19044;DHT22;9654;52.302;8.120;2023-11-19T04:11:48;11.50;99.90
19044;DHT22;9654;52.302;8.120;2023-11-19T04:14:15;11.50;99.90
19044;DHT22;9654;52.302;8.120;2023-11-19T04:16:43;11.50;99.90
19044;DHT22;9654;52.302;8.120;2023-11-19T04:19:10;11.50;99.90
19044;DHT22;9654;52.302;8.120;2023-11-19T04:21:37;11.50;99.90
19044;DHT22;9654;52.302;8.120;2023-11-19T04:24:06;11.50;99.90
19044;DHT22;9654;52.302;8.120;2023-11-19T04:26:33;11.50;99.90
19044;DHT22;9654;52.302;8.120;2023-11-19T04:29:01;11.60;99.90
19044;DHT22;9654;52.302;8.120;2023-11-19T04:31:29;11.50;99.90
19044;DHT22;9654;52.302;8.120;2023-11-19T04:33:57;11.60;99.90
19044;DHT22;9654;52.302;8.120;2023-11-19T04:36:25;11.60;99.90
19044;DHT22;9654;52.302;8.120;2023-11-19T04:38:52;11.60;99.90
19044;DHT22;9654;52.302;8.120;2023-11-19T04:41:19;11.50;99.90
19044;DHT22;9654;52.302;8.120;2023-11-19T04:43:46;11.50;99.90
19044;DHT22;9654;52.302;8.120;2023-11-19T04:46:14;11.50;99.90
19044;DHT22;9654;52.302;8.120;2023-11-19T04:48:41;11.40;99.90
19044;DHT22;9654;52.302;8.120;2023-11-19T04:51:08;11.40;99.90
19044;DHT22;9654;52.302;8.120;2023-11-19T04:53:35;11.40;99.90
19044;DHT22;9654;52.302;8.120;2023-11-19T04:56:07;11.40;99.90
19044;DHT22;9654;52.302;8.120;2023-11-19T04:58:34;11.40;99.90
19044;DHT22;9654;52.302;8.120;2023-11-19T05:01:03;11.40;99.90
19044;DHT22;9654;52.302;8.120;2023-11-19T05:03:31;11.40;99.90
19044;DHT22;9654;52.302;8.120;2023-11-19T05:05:58;11.40;99.90
19044;DHT22;9654;52.302;8.120;2023-11-19T05:08:24;11.40;99.90
19044;DHT22;9654;52.302;8.120;2023-11-19T05:10:51;11.40;99.90
19044;DHT22;9654;52.302;8.120;2023-11-19T05:13:18;11.50;99.90
19044;DHT22;9654;52.302;8.120;2023-11-19T05:15:45;11.50;99.90
19044;DHT22;9654;52.302;8.120;2023-11-19T05:18:12;11.50;99.90
19044;DHT22;9654;52.302;8.120;2023-11-19T05:20:40;11.50;99.90
19044;DHT22;9654;52.302;8.120;2023-11-19T05:23:07;11.50;99.90
19044;DHT22;9654;52.302;8.120;2023-11-19T05:25:33;11.50;99.90
19044;DHT22;9654;52.302;8.120;2023-11-19T05:28:00;11.50;99.90
19044;DHT22;9654;52.302;8.120;2023-11-19T05:30:36;11.50;99.90
19044;DHT22;9654;52.302;8.120;2023-11-19T05:33:03;11.50;99.90
19044;DHT22;9654;52.302;8.120;2023-11-19T05:35:30;11.50;99.90
19044;DHT22;9654;52.302;8.120;2023-11-19T05:37:58;11.60;99.90
19044;DHT22;9654;52.302;8.120;2023-11-19T05:40:24;11.60;99.90
19044;DHT22;9654;52.302;8.120;2023-11-19T05:42:51;11.60;99.90
19044;DHT22;9654;52.302;8.120;2023-11-19T05:45:18;11.60;99.90
19044;DHT22;9654;52.302;8.120;2023-11-19T05:47:45;11.60;99.90
19044;DHT22;9654;52.302;8.120;2023-11-19T05:50:11;11.60;99.90
19044;DHT22;9654;52.302;8.120;2023-11-19T05:52:38;11.50;99.90
19044;DHT22;9654;52.302;8.120;2023-11-19T05:55:07;11.40;99.90
19044;DHT22;9654;52.302;8.120;2023-11-19T05:57:36;11.40;99.90
19044;DHT22;9654;52.302;8.120;2023-11-19T06:00:03;11.40;99.90
19044;DHT22;9654;52.302;8.120;2023-11-19T06:02:33;11.40;99.90
19044;DHT22;9654;52.302;8.120;2023-11-19T06:04:59;11.40;99.90
19044;DHT22;9654;52.302;8.120;2023-11-19T06:07:26;11.40;99.90
19044;DHT22;9654;52.302;8.120;2023-11-19T06:09:53;11.40;99.90
19044;DHT22;9654;52.302;8.120;2023-11-19T06:12:21;11.40;99.90
19044;DHT22;9654;52.302;8.120;2023-11-19T06:14:48;11.40;99.90
19044;DHT22;9654;52.302;8.120;2023-11-19T06:17:15;11.50;99.90
19044;DHT22;9654;52.302;8.120;2023-11-19T06:19:42;11.40;99.90
19044;DHT22;9654;52.302;8.120;2023-11-19T06:22:10;11.40;99.90
19044;DHT22;9654;52.302;8.120;2023-11-19T06:24:37;11.40;99.90
19044;DHT22;9654;52.302;8.120;2023-11-19T06:27:04;11.40;99.90
19044;DHT22;9654;52.302;8.120;2023-11-19T06:29:32;11.40;99.90
19044;DHT22;9654;52.302;8.120;2023-11-19T06:31:59;11.40;99.90
19044;DHT22;9654;52.302;8.120;2023-11-19T06:34:25;11.40;99.90
19044;DHT22;9654;52.302;8.120;2023-11-19T06:36:52;11.40;99.90
19044;DHT22;9654;52.302;8.120;2023-11-19T06:39:19;11.40;99.90
19044;DHT22;9654;52.302;8.120;2023-11-19T06:41:46;11.40;99.90
19044;DHT22;9654;52.302;8.120;2023-11-19T06:44:13;11.40;99.90
19044;DHT22;9654;52.302;8.120;2023-11-19T06:46:41;11.40;99.90
19044;DHT22;9654;52.302;8.120;2023-11-19T06:49:08;11.30;99.90
19044;DHT22;9654;52.302;8.120;2023-11-19T06:51:35;11.30;99.90
19044;DHT22;9654;52.302;8.120;2023-11-19T06:54:02;11.30;99.90
19044;DHT22;9654;52.302;8.120;2023-11-19T06:56:28;11.30;99.90
19044;DHT22;9654;52.302;8.120;2023-11-19T06:58:55;11.30;99.90
19044;DHT22;9654;52.302;8.120;2023-11-19T07:01:22;11.20;99.90
19044;DHT22;9654;52.302;8.120;2023-11-19T07:03:50;11.20;99.90
19044;DHT22;9654;52.302;8.120;2023-11-19T07:06:17;11.20;99.90
19044;DHT22;9654;52.302;8.120;2023-11-19T07:08:44;11.10;99.90
19044;DHT22;9654;52.302;8.120;2023-11-19T07:11:12;11.20;99.90
19044;DHT22;9654;52.302;8.120;2023-11-19T07:13:40;11.20;99.90
19044;DHT22;9654;52.302;8.120;2023-11-19T07:16:07;11.20;99.90
19044;DHT22;9654;52.302;8.120;2023-11-19T07:18:36;11.20;99.90
19044;DHT22;9654;52.302;8.120;2023-11-19T07:21:06;11.20;99.90
19044;DHT22;9654;52.302;8.120;2023-11-19T07:23:35;11.20;99.90
19044;DHT22;9654;52.302;8.120;2023-11-19T07:26:05;11.20;99.90
19044;DHT22;9654;52.302;8.120;2023-11-19T07:28:33;11.20;99.90
19044;DHT22;9654;52.302;8.120;2023-11-19T07:31:00;11.20;99.90
19044;DHT22;9654;52.302;8.120;2023-11-19T07:33:27;11.20;99.90
19044;DHT22;9654;52.302;8.120;2023-11-19T07:35:55;11.20;99.90
19044;DHT22;9654;52.302;8.120;2023-11-19T07:38:23;11.20;99.90
19044;DHT22;9654;52.302;8.120;2023-11-19T07:40:50;11.20;99.90
19044;DHT22;9654;52.302;8.120;2023-11-19T07:43:16;11.20;99.90
19044;DHT22;9654;52.302;8.120;2023-11-19T07:45:43;11.20;99.90
19044;DHT22;9654;52.302;8.120;2023-11-19T07:48:10;11.30;99.90
19044;DHT22;9654;52.302;8.120;2023-11-19T07:50:38;11.20;99.90
19044;DHT22;9654;52.302;8.120;2023-11-19T07:53:06;11.30;99.90
19044;DHT22;9654;52.302;8.120;2023-11-19T07:55:34;11.30;99.90
19044;DHT22;9654;52.302;8.120;2023-11-19T07:58:01;11.30;99.90
19044;DHT22;9654;52.302;8.120;2023-11-19T08:00:28;11.30;99.90
19044;DHT22;9654;52.302;8.120;2023-11-19T08:02:54;11.30;99.90
19044;DHT22;9654;52.302;8.120;2023-11-19T08:05:21;11.30;99.90
19044;DHT22;9654;52.302;8.120;2023-11-19T08:07:50;11.30;99.90
19044;DHT22;9654;52.302;8.120;2023-11-19T08:10:17;11.30;99.90
19044;DHT22;9654;52.302;8.120;2023-11-19T08:12:45;11.30;99.90
19044;DHT22;9654;52.302;8.120;2023-11-19T08:15:12;11.30;99.90
19044;DHT22;9654;52.302;8.120;2023-11-19T08:17:39;11.40;99.90
19044;DHT22;9654;52.302;8.120;2023-11-19T08:20:07;11.30;99.90
19044;DHT22;9654;52.302;8.120;2023-11-19T08:22:35;11.40;99.90
19044;DHT22;9654;52.302;8.120;2023-11-19T08:25:03;11.40;99.90
19044;DHT22;9654;52.302;8.120;2023-11-19T08:27:30;11.40;99.90
19044;DHT22;9654;52.302;8.120;2023-11-19T08:29:58;11.50;99.90
19044;DHT22;9654;52.302;8.120;2023-11-19T08:32:25;11.50;99.90
19044;DHT22;9654;52.302;8.120;2023-11-19T08:34:53;11.60;99.90
19044;DHT22;9654;52.302;8.120;2023-11-19T08:37:20;11.60;99.90
19044;DHT22;9654;52.302;8.120;2023-11-19T08:39:47;11.60;99.90
19044;DHT22;9654;52.302;8.120;2023-11-19T08:42:14;11.60;99.90
19044;DHT22;9654;52.302;8.120;2023-11-19T08:44:41;11.50;99.90
19044;DHT22;9654;52.302;8.120;2023-11-19T08:47:11;11.50;99.90
19044;DHT22;9654;52.302;8.120;2023-11-19T08:49:39;11.50;99.90
19044;DHT22;9654;52.302;8.120;2023-11-19T08:52:06;11.50;99.90
19044;DHT22;9654;52.302;8.120;2023-11-19T08:54:33;11.40;99.90
19044;DHT22;9654;52.302;8.120;2023-11-19T08:57:00;11.50;99.90
19044;DHT22;9654;52.302;8.120;2023-11-19T08:59:28;11.40;99.90
19044;DHT22;9654;52.302;8.120;2023-11-19T09:01:55;11.40;99.90
19044;DHT22;9654;52.302;8.120;2023-11-19T09:04:23;11.40;99.90
19044;DHT22;9654;52.302;8.120;2023-11-19T09:06:50;11.40;99.90
19044;DHT22;9654;52.302;8.120;2023-11-19T09:09:17;11.30;99.90
19044;DHT22;9654;52.302;8.120;2023-11-19T09:11:44;11.30;99.90
19044;DHT22;9654;52.302;8.120;2023-11-19T09:14:10;11.20;99.90
19044;DHT22;9654;52.302;8.120;2023-11-19T09:16:37;11.20;99.90
19044;DHT22;9654;52.302;8.120;2023-11-19T09:19:04;11.20;99.90
19044;DHT22;9654;52.302;8.120;2023-11-19T09:21:32;11.10;99.90
19044;DHT22;9654;52.302;8.120;2023-11-19T09:24:00;11.10;99.90
19044;DHT22;9654;52.302;8.120;2023-11-19T09:26:26;11.00;99.90
19044;DHT22;9654;52.302;8.120;2023-11-19T09:28:53;11.00;99.90
19044;DHT22;9654;52.302;8.120;2023-11-19T09:31:20;11.00;99.90
19044;DHT22;9654;52.302;8.120;2023-11-19T09:33:47;11.00;99.90
19044;DHT22;9654;52.302;8.120;2023-11-19T09:36:13;11.00;99.90
19044;DHT22;9654;52.302;8.120;2023-11-19T09:38:43;11.00;99.90
19044;DHT22;9654;52.302;8.120;2023-11-19T09:41:10;11.10;99.90
19044;DHT22;9654;52.302;8.120;2023-11-19T09:43:39;11.20;99.90
19044;DHT22;9654;52.302;8.120;2023-11-19T09:46:08;11.30;99.90
19044;DHT22;9654;52.302;8.120;2023-11-19T09:48:37;11.40;99.90
19044;DHT22;9654;52.302;8.120;2023-11-19T09:51:06;11.50;99.90
19044;DHT22;9654;52.302;8.120;2023-11-19T09:53:33;11.60;99.90
19044;DHT22;9654;52.302;8.120;2023-11-19T09:56:03;11.60;99.90
19044;DHT22;9654;52.302;8.120;2023-11-19T09:58:32;11.70;99.90
19044;DHT22;9654;52.302;8.120;2023-11-19T10:01:00;11.70;99.90
19044;DHT22;9654;52.302;8.120;2023-11-19T10:03:33;11.80;99.90
19044;DHT22;9654;52.302;8.120;2023-11-19T10:06:01;11.80;99.90
19044;DHT22;9654;52.302;8.120;2023-11-19T10:08:27;11.70;99.90
19044;DHT22;9654;52.302;8.120;2023-11-19T10:10:54;11.70;99.90
19044;DHT22;9654;52.302;8.120;2023-11-19T10:13:26;11.70;99.90
19044;DHT22;9654;52.302;8.120;2023-11-19T10:15:53;11.60;99.90
19044;DHT22;9654;52.302;8.120;2023-11-19T10:18:24;11.70;99.90
19044;DHT22;9654;52.302;8.120;2023-11-19T10:20:52;11.60;99.90
19044;DHT22;9654;52.302;8.120;2023-11-19T10:23:18;11.70;99.90
19044;DHT22;9654;52.302;8.120;2023-11-19T10:25:46;11.70;99.90
19044;DHT22;9654;52.302;8.120;2023-11-19T10:28:15;11.70;99.90
19044;DHT22;9654;52.302;8.120;2023-11-19T10:30:43;11.70;99.90
19044;DHT22;9654;52.302;8.120;2023-11-19T10:33:11;11.80;99.90
19044;DHT22;9654;52.302;8.120;2023-11-19T10:36:00;11.80;99.90
19044;DHT22;9654;52.302;8.120;2023-11-19T10:38:27;11.80;99.90
19044;DHT22;9654;52.302;8.120;2023-11-19T10:40:55;11.80;99.90
19044;DHT22;9654;52.302;8.120;2023-11-19T10:43:22;11.80;99.90
19044;DHT22;9654;52.302;8.120;2023-11-19T10:45:51;11.80;99.90
19044;DHT22;9654;52.302;8.120;2023-11-19T10:48:18;11.80;99.90
19044;DHT22;9654;52.302;8.120;2023-11-19T10:50:52;11.70;99.90
19044;DHT22;9654;52.302;8.120;2023-11-19T10:53:20;11.70;99.90
19044;DHT22;9654;52.302;8.120;2023-11-19T10:55:51;11.70;99.90
19044;DHT22;9654;52.302;8.120;2023-11-19T10:58:20;11.60;99.90
19044;DHT22;9654;52.302;8.120;2023-11-19T11:00:50;11.50;99.90
19044;DHT22;9654;52.302;8.120;2023-11-19T11:03:19;11.50;99.90
19044;DHT22;9654;52.302;8.120;2023-11-19T11:05:47;11.40;99.90
19044;DHT22;9654;52.302;8.120;2023-11-19T11:08:14;11.40;99.90
19044;DHT22;9654;52.302;8.120;2023-11-19T11:10:44;11.40;99.90
19044;DHT22;9654;52.302;8.120;2023-11-19T11:13:11;11.40;99.90
19044;DHT22;9654;52.302;8.120;2023-11-19T11:15:40;11.40;99.90
19044;DHT22;9654;52.302;8.120;2023-11-19T11:18:08;11.40;99.90
19044;DHT22;9654;52.302;8.120;2023-11-19T11:20:37;11.40;99.90
19044;DHT22;9654;52.302;8.120;2023-11-19T11:26:20;11.40;99.90
19044;DHT22;9654;52.302;8.120;2023-11-19T11:28:56;11.40;99.90
19044;DHT22;9654;52.302;8.120;2023-11-19T11:31:39;11.40;99.90
19044;DHT22;9654;52.302;8.120;2023-11-19T11:34:30;11.40;99.90
19044;DHT22;9654;52.302;8.120;2023-11-19T11:37:10;11.30;99.90
19044;DHT22;9654;52.302;8.120;2023-11-19T11:39:40;11.20;99.90
19044;DHT22;9654;52.302;8.120;2023-11-19T11:42:35;11.20;99.90
19044;DHT22;9654;52.302;8.120;2023-11-19T11:45:03;11.20;99.90
19044;DHT22;9654;52.302;8.120;2023-11-19T11:48:11;11.20;99.90
19044;DHT22;9654;52.302;8.120;2023-11-19T11:50:52;11.30;99.90
19044;DHT22;9654;52.302;8.120;2023-11-19T11:53:22;11.30;99.90
19044;DHT22;9654;52.302;8.120;2023-11-19T11:55:53;11.30;99.90
19044;DHT22;9654;52.302;8.120;2023-11-19T11:58:21;11.40;99.90
19044;DHT22;9654;52.302;8.120;2023-11-19T12:00:48;11.50;99.90
19044;DHT22;9654;52.302;8.120;2023-11-19T12:03:20;11.50;99.90
19044;DHT22;9654;52.302;8.120;2023-11-19T12:05:48;11.50;99.90
19044;DHT22;9654;52.302;8.120;2023-11-19T12:08:17;11.60;99.90
19044;DHT22;9654;52.302;8.120;2023-11-19T12:10:49;11.50;99.90
19044;DHT22;9654;52.302;8.120;2023-11-19T12:13:16;11.60;99.90
19044;DHT22;9654;52.302;8.120;2023-11-19T12:16:08;11.50;99.90
19044;DHT22;9654;52.302;8.120;2023-11-19T12:18:39;11.50;99.90
19044;DHT22;9654;52.302;8.120;2023-11-19T12:21:06;11.50;99.90
19044;DHT22;9654;52.302;8.120;2023-11-19T12:23:35;11.50;99.90
19044;DHT22;9654;52.302;8.120;2023-11-19T12:26:21;11.50;99.90
19044;DHT22;9654;52.302;8.120;2023-11-19T12:29:00;11.60;99.90
19044;DHT22;9654;52.302;8.120;2023-11-19T12:31:29;11.60;99.90
19044;DHT22;9654;52.302;8.120;2023-11-19T12:33:56;11.60;99.90
19044;DHT22;9654;52.302;8.120;2023-11-19T12:36:23;11.60;99.90
19044;DHT22;9654;52.302;8.120;2023-11-19T12:38:49;11.60;99.90
19044;DHT22;9654;52.302;8.120;2023-11-19T12:41:18;11.70;99.90
19044;DHT22;9654;52.302;8.120;2023-11-19T12:43:47;11.80;99.90
19044;DHT22;9654;52.302;8.120;2023-11-19T12:46:18;11.80;99.90
19044;DHT22;9654;52.302;8.120;2023-11-19T12:48:45;11.90;99.90
19044;DHT22;9654;52.302;8.120;2023-11-19T12:51:12;11.90;99.90
19044;DHT22;9654;52.302;8.120;2023-11-19T12:53:47;11.90;99.90
19044;DHT22;9654;52.302;8.120;2023-11-19T12:56:16;12.00;99.90
19044;DHT22;9654;52.302;8.120;2023-11-19T12:58:56;12.00;99.90
19044;DHT22;9654;52.302;8.120;2023-11-19T13:01:23;12.00;99.90
19044;DHT22;9654;52.302;8.120;2023-11-19T13:03:49;12.00;99.90
19044;DHT22;9654;52.302;8.120;2023-11-19T13:06:17;12.10;99.90
19044;DHT22;9654;52.302;8.120;2023-11-19T13:08:47;12.10;99.90
19044;DHT22;9654;52.302;8.120;2023-11-19T13:11:19;12.10;99.90
19044;DHT22;9654;52.302;8.120;2023-11-19T13:13:59;12.00;99.90
19044;DHT22;9654;52.302;8.120;2023-11-19T13:16:26;12.00;99.90
19044;DHT22;9654;52.302;8.120;2023-11-19T13:18:53;12.00;99.90
19044;DHT22;9654;52.302;8.120;2023-11-19T13:21:20;12.00;99.90
19044;DHT22;9654;52.302;8.120;2023-11-19T13:23:47;11.90;99.90
19044;DHT22;9654;52.302;8.120;2023-11-19T13:26:13;11.90;99.90
19044;DHT22;9654;52.302;8.120;2023-11-19T13:28:40;11.90;99.90
19044;DHT22;9654;52.302;8.120;2023-11-19T13:31:08;11.90;99.90
19044;DHT22;9654;52.302;8.120;2023-11-19T13:33:35;11.90;99.90
19044;DHT22;9654;52.302;8.120;2023-11-19T13:36:03;12.00;99.90
19044;DHT22;9654;52.302;8.120;2023-11-19T13:38:31;12.00;99.90
19044;DHT22;9654;52.302;8.120;2023-11-19T13:40:58;12.00;99.90
19044;DHT22;9654;52.302;8.120;2023-11-19T13:43:25;12.00;99.90
19044;DHT22;9654;52.302;8.120;2023-11-19T13:45:53;12.00;99.90
19044;DHT22;9654;52.302;8.120;2023-11-19T13:48:25;11.90;99.90
19044;DHT22;9654;52.302;8.120;2023-11-19T13:50:53;11.90;99.90
19044;DHT22;9654;52.302;8.120;2023-11-19T13:53:19;11.90;99.90
19044;DHT22;9654;52.302;8.120;2023-11-19T13:55:46;11.80;99.90
19044;DHT22;9654;52.302;8.120;2023-11-19T13:58:14;11.90;99.90
19044;DHT22;9654;52.302;8.120;2023-11-19T14:00:41;11.80;99.90
19044;DHT22;9654;52.302;8.120;2023-11-19T14:03:09;11.90;99.90
19044;DHT22;9654;52.302;8.120;2023-11-19T14:05:37;11.80;99.90
19044;DHT22;9654;52.302;8.120;2023-11-19T14:08:04;11.80;99.90
19044;DHT22;9654;52.302;8.120;2023-11-19T14:10:37;11.70;99.90
19044;DHT22;9654;52.302;8.120;2023-11-19T14:13:04;11.70;99.90
19044;DHT22;9654;52.302;8.120;2023-11-19T14:15:31;11.60;99.90
19044;DHT22;9654;52.302;8.120;2023-11-19T14:17:58;11.60;99.90
19044;DHT22;9654;52.302;8.120;2023-11-19T14:20:25;11.60;99.90
19044;DHT22;9654;52.302;8.120;2023-11-19T14:22:53;11.60;99.90
19044;DHT22;9654;52.302;8.120;2023-11-19T14:25:20;11.60;99.90
19044;DHT22;9654;52.302;8.120;2023-11-19T14:27:49;11.60;99.90
19044;DHT22;9654;52.302;8.120;2023-11-19T14:30:15;11.60;99.90
19044;DHT22;9654;52.302;8.120;2023-11-19T14:32:43;11.60;99.90
19044;DHT22;9654;52.302;8.120;2023-11-19T14:35:11;11.60;99.90
19044;DHT22;9654;52.302;8.120;2023-11-19T14:37:38;11.60;99.90
19044;DHT22;9654;52.302;8.120;2023-11-19T14:40:07;11.60;99.90
19044;DHT22;9654;52.302;8.120;2023-11-19T14:42:36;11.60;99.90
19044;DHT22;9654;52.302;8.120;2023-11-19T14:45:05;11.60;99.90
19044;DHT22;9654;52.302;8.120;2023-11-19T14:47:32;11.60;99.90
19044;DHT22;9654;52.302;8.120;2023-11-19T14:49:59;11.60;99.90
19044;DHT22;9654;52.302;8.120;2023-11-19T14:52:26;11.50;99.90
19044;DHT22;9654;52.302;8.120;2023-11-19T14:54:52;11.50;99.90
19044;DHT22;9654;52.302;8.120;2023-11-19T14:57:23;11.40;99.90
19044;DHT22;9654;52.302;8.120;2023-11-19T14:59:50;11.40;99.90
19044;DHT22;9654;52.302;8.120;2023-11-19T15:02:16;11.30;99.90
19044;DHT22;9654;52.302;8.120;2023-11-19T15:04:44;11.20;99.90
19044;DHT22;9654;52.302;8.120;2023-11-19T15:07:11;11.30;99.90
19044;DHT22;9654;52.302;8.120;2023-11-19T15:09:38;11.20;99.90
19044;DHT22;9654;52.302;8.120;2023-11-19T15:12:05;11.20;99.90
19044;DHT22;9654;52.302;8.120;2023-11-19T15:14:33;11.20;99.90
19044;DHT22;9654;52.302;8.120;2023-11-19T15:17:00;11.10;99.90
19044;DHT22;9654;52.302;8.120;2023-11-19T15:19:27;11.10;99.90
19044;DHT22;9654;52.302;8.120;2023-11-19T15:21:54;11.10;99.90
19044;DHT22;9654;52.302;8.120;2023-11-19T15:24:21;11.10;99.90
19044;DHT22;9654;52.302;8.120;2023-11-19T15:26:48;11.10;99.90
19044;DHT22;9654;52.302;8.120;2023-11-19T15:29:15;11.10;99.90
19044;DHT22;9654;52.302;8.120;2023-11-19T15:31:43;11.10;99.90
19044;DHT22;9654;52.302;8.120;2023-11-19T15:34:10;11.20;99.90
19044;DHT22;9654;52.302;8.120;2023-11-19T15:36:36;11.20;99.90
19044;DHT22;9654;52.302;8.120;2023-11-19T15:39:03;11.20;99.90
19044;DHT22;9654;52.302;8.120;2023-11-19T15:41:31;11.20;99.90
19044;DHT22;9654;52.302;8.120;2023-11-19T15:43:58;11.20;99.90
19044;DHT22;9654;52.302;8.120;2023-11-19T15:46:25;11.20;99.90
19044;DHT22;9654;52.302;8.120;2023-11-19T15:48:53;11.20;99.90
19044;DHT22;9654;52.302;8.120;2023-11-19T15:51:20;11.20;99.90
19044;DHT22;9654;52.302;8.120;2023-11-19T15:53:46;11.20;99.90
19044;DHT22;9654;52.302;8.120;2023-11-19T15:56:13;11.30;99.90
19044;DHT22;9654;52.302;8.120;2023-11-19T15:58:40;11.20;99.90